| time (UTC) | temp C | wind direction | speed KPH | gust KPH | rain 1hr cm | rain 24hr cm | rain mn cm | humidity % | barometer mb |
| 20260906060031 | 20 | 22 | 0.0 | 0.0 | 0.00 | 0.46 | 0.00 | 100 | 1018.9 |
| 20260906055031 | 20 | 22 | 0.0 | 0.0 | 0.00 | 0.46 | 0.00 | 100 | 1019.1 |
| 20260906053131 | 20 | 22 | 0.0 | 0.0 | 0.00 | 0.46 | 0.00 | 99 | 1019.1 |
| 20260906053032 | 20 | 22 | 0.0 | 0.0 | 0.00 | 0.46 | 0.00 | 99 | 1019.2 |
| 20260906052031 | 20 | 22 | 0.0 | 0.0 | 0.00 | 0.46 | 0.00 | 99 | 1019.4 |
| 20260906051129 | 20 | 22 | 0.0 | 0.0 | 0.00 | 0.46 | 0.00 | 99 | 1019.4 |
| 20260906051032 | 20 | 22 | 0.0 | 0.0 | 0.00 | 0.46 | 0.00 | 99 | 1019.4 |
| 20260906050031 | 20 | 22 | 0.0 | 0.0 | 0.00 | 0.46 | 0.00 | 100 | 1019.3 |
| 20260906045030 | 20 | 22 | 0.0 | 0.0 | 0.00 | 0.46 | 0.00 | 100 | 1019.3 |
| 20260906043030 | 20 | 22 | 0.0 | 0.0 | 0.00 | 0.46 | 0.00 | 100 | 1019.6 |
| 20260906042030 | 20 | 22 | 0.0 | 0.0 | 0.00 | 0.46 | 0.00 | 100 | 1019.6 |
| 20260906041030 | 20 | 22 | 0.0 | 0.0 | 0.00 | 0.46 | 0.00 | 99 | 1019.6 |
| 20260906040932 | 20 | 22 | 0.0 | 0.0 | 0.00 | 0.46 | 0.00 | 100 | 1019.5 |
| 20260906040830 | 20 | 22 | 0.0 | 0.0 | 0.00 | 0.46 | 0.00 | 99 | 1019.5 |
| 20260906035923 | 20 | 22 | 0.0 | 0.0 | 0.00 | 0.46 | 0.46 | 100 | 1019.6 |
| 20260906034022 | 20 | 22 | 0.0 | 0.0 | 0.00 | 0.46 | 0.46 | 100 | 1019.8 |
| 20260906031123 | 21 | 22 | 0.0 | 0.0 | 0.00 | 0.46 | 0.46 | 100 | 1020.0 |
| 20260906030221 | 21 | 22 | 0.0 | 0.0 | 0.00 | 0.46 | 0.46 | 100 | 1020.1 |
| 20260906025223 | 21 | 22 | 0.0 | 0.0 | 0.00 | 0.46 | 0.46 | 98 | 1019.9 |
| 20260906024223 | 21 | 22 | 0.0 | 0.0 | 0.00 | 0.46 | 0.46 | 99 | 1019.8 |
| 20260906023221 | 21 | 22 | 0.0 | 0.0 | 0.00 | 0.46 | 0.46 | 99 | 1019.8 |
| 20260906022224 | 21 | 22 | 0.0 | 1.6 | 0.00 | 0.46 | 0.46 | 99 | 1019.6 |
| 20260906021223 | 21 | 22 | 0.0 | 0.0 | 0.00 | 0.46 | 0.46 | 98 | 1019.5 |
| 20260906020222 | 21 | 22 | 1.6 | 1.6 | 0.00 | 0.46 | 0.46 | 99 | 1019.3 |
| 20260906015222 | 21 | 22 | 0.0 | 1.6 | 0.00 | 0.46 | 0.46 | 99 | 1019.5 |
| 20260906014223 | 21 | 22 | 0.0 | 0.0 | 0.00 | 0.46 | 0.46 | 99 | 1019.3 |
| 20260906013322 | 21 | 22 | 0.0 | 0.0 | 0.00 | 0.46 | 0.46 | 98 | 1019.1 |
| 20260906013224 | 21 | 22 | 0.0 | 0.0 | 0.00 | 0.46 | 0.46 | 98 | 1019.1 |
| 20260906013122 | 21 | 22 | 0.0 | 0.0 | 0.00 | 0.46 | 0.46 | 99 | 1019.1 |
| 20260906012123 | 21 | 22 | 0.0 | 0.0 | 0.00 | 0.46 | 0.46 | 99 | 1019.2 |
| 20260906011122 | 21 | 22 | 1.6 | 3.2 | 0.00 | 0.46 | 0.46 | 99 | 1019.0 |
| 20260906010122 | 21 | 22 | 1.6 | 1.6 | 0.00 | 0.46 | 0.46 | 98 | 1019.0 |
| 20260906005121 | 21 | 22 | 1.6 | 3.2 | 0.00 | 0.46 | 0.46 | 99 | 1019.0 |
| 20260906003121 | 21 | 22 | 3.2 | 3.2 | 0.00 | 0.46 | 0.46 | 98 | 1018.7 |
| 20260906003021 | 21 | 22 | 3.2 | 3.2 | 0.00 | 0.46 | 0.46 | 99 | 1018.7 |
| 20260906002024 | 21 | 22 | 3.2 | 3.2 | 0.00 | 0.46 | 0.46 | 98 | 1018.8 |
| 20260906001022 | 21 | 22 | 3.2 | 3.2 | 0.00 | 0.46 | 0.46 | 97 | 1018.7 |
| 20260906000923 | 21 | 22 | 3.2 | 3.2 | 0.00 | 0.46 | 0.46 | 98 | 1018.7 |
| 20260905235923 | 21 | 22 | 1.6 | 3.2 | 0.00 | 0.46 | 0.46 | 97 | 1018.7 |
| 20260905234922 | 22 | 22 | 1.6 | 3.2 | 0.00 | 0.46 | 0.46 | 97 | 1018.4 |
| 20260905233921 | 22 | 22 | 1.6 | 3.2 | 0.00 | 0.46 | 0.46 | 98 | 1018.4 |
| 20260905232922 | 22 | 22 | 1.6 | 1.6 | 0.00 | 0.46 | 0.46 | 98 | 1018.6 |
| 20260905232824 | 22 | 22 | 1.6 | 1.6 | 0.00 | 0.46 | 0.46 | 97 | 1018.6 |
| 20260905231823 | 22 | 22 | 1.6 | 1.6 | 0.00 | 0.46 | 0.46 | 98 | 1018.3 |
| 20260905230921 | 22 | 22 | 1.6 | 1.6 | 0.00 | 0.46 | 0.46 | 99 | 1018.2 |
| 20260905230822 | 22 | 22 | 1.6 | 1.6 | 0.00 | 0.46 | 0.46 | 98 | 1018.2 |
| 20260905223822 | 22 | 22 | 1.6 | 3.2 | 0.00 | 0.46 | 0.46 | 98 | 1018.4 |
| 20260905220822 | 22 | 22 | 1.6 | 1.6 | 0.00 | 0.46 | 0.46 | 99 | 1018.4 |
| 20260905213922 | 22 | 22 | 1.6 | 1.6 | 0.00 | 0.46 | 0.46 | 98 | 1018.7 |
| 20260905213822 | 22 | 22 | 1.6 | 1.6 | 0.00 | 0.46 | 0.46 | 98 | 1018.7 |
| 20260905212825 | 22 | 22 | 1.6 | 1.6 | 0.00 | 0.46 | 0.46 | 98 | 1018.8 |
| 20260905211823 | 22 | 22 | 1.6 | 1.6 | 0.00 | 0.46 | 0.46 | 98 | 1019.1 |
| 20260905205922 | 21 | 22 | 1.6 | 1.6 | 0.00 | 0.46 | 0.46 | 98 | 1019.2 |
| 20260905204923 | 22 | 22 | 1.6 | 3.2 | 0.00 | 0.46 | 0.46 | 97 | 1019.1 |
| 20260905203021 | 22 | 22 | 1.6 | 1.6 | 0.00 | 0.46 | 0.46 | 97 | 1019.1 |
| 20260905202023 | 22 | 22 | 3.2 | 3.2 | 0.00 | 0.46 | 0.46 | 97 | 1019.3 |
| 20260905200022 | 21 | 22 | 0.0 | 0.0 | 0.00 | 0.46 | 0.46 | 97 | 1019.4 |
| 20260905195022 | 21 | 22 | 0.0 | 0.0 | 0.00 | 0.46 | 0.46 | 98 | 1019.5 |
| 20260905194023 | 21 | 22 | 0.0 | 1.6 | 0.00 | 0.46 | 0.46 | 97 | 1019.9 |
| 20260905192022 | 21 | 22 | 1.6 | 1.6 | 0.00 | 0.46 | 0.46 | 97 | 1020.2 |
| 20260905191022 | 21 | 22 | 1.6 | 1.6 | 0.03 | 0.46 | 0.46 | 98 | 1020.0 |
| 20260905190121 | 21 | 22 | 1.6 | 1.6 | 0.03 | 0.46 | 0.46 | 98 | 1020.6 |
| 20260905190022 | 21 | 22 | 1.6 | 1.6 | 0.03 | 0.46 | 0.46 | 97 | 1020.6 |
| 20260905185023 | 21 | 22 | 1.6 | 1.6 | 0.03 | 0.46 | 0.46 | 96 | 1020.7 |
| 20260905184121 | 20 | 22 | 1.6 | 1.6 | 0.43 | 0.46 | 0.46 | 96 | 1020.3 |
| 20260905184025 | 20 | 22 | 1.6 | 1.6 | 0.46 | 0.46 | 0.46 | 96 | 1020.3 |
| 20260905183923 | 20 | 22 | 1.6 | 1.6 | 0.46 | 0.46 | 0.46 | 95 | 1020.3 |
| 20260905182922 | 20 | 22 | 0.0 | 1.6 | 0.46 | 0.46 | 0.46 | 95 | 1020.3 |
| 20260905181921 | 20 | 22 | 3.2 | 3.2 | 0.46 | 0.46 | 0.46 | 93 | 1020.3 |
| 20260905180923 | 20 | 22 | 3.2 | 4.8 | 0.43 | 0.43 | 0.43 | 92 | 1020.8 |
| 20260905175924 | 21 | 67 | 0.0 | 0.0 | 0.43 | 0.43 | 0.43 | 88 | 1021.2 |
| 20260905175021 | 23 | 157 | 3.2 | 6.4 | 0.43 | 0.43 | 0.41 | 84 | 1021.1 |
| 20260905174121 | 25 | 155 | 6.4 | 24.1 | 0.03 | 0.03 | 0.00 | 84 | 1021.4 |
| 20260905173122 | 25 | 22 | 0.0 | 0.0 | 0.00 | 0.00 | 0.00 | 83 | 1020.3 |
| 20260905172124 | 26 | 22 | 0.0 | 1.6 | 0.00 | 0.00 | 0.00 | 84 | 1020.3 |
| 20260905171222 | 26 | 22 | 1.6 | 3.2 | 0.00 | 0.00 | 0.00 | 81 | 1019.9 |
| 20260905170222 | 26 | 45 | 3.2 | 4.8 | 0.00 | 0.00 | 0.00 | 81 | 1020.0 |
| 20260905165320 | 26 | 45 | 0.0 | 1.6 | 0.00 | 0.00 | 0.00 | 84 | 1019.8 |
| 20260905164323 | 26 | 45 | 1.6 | 3.2 | 0.00 | 0.00 | 0.00 | 86 | 1020.1 |
| 20260905163323 | 25 | 45 | 1.6 | 3.2 | 0.00 | 0.00 | 0.00 | 88 | 1020.5 |
| 20260905162322 | 25 | 45 | 1.6 | 3.2 | 0.00 | 0.00 | 0.00 | 90 | 1020.6 |
| 20260905160424 | 25 | 45 | 1.6 | 3.2 | 0.00 | 0.00 | 0.00 | 95 | 1020.7 |
| 20260905155520 | 25 | 45 | 1.6 | 3.2 | 0.00 | 0.00 | 0.00 | 95 | 1020.7 |
| 20260905155422 | 25 | 45 | 1.6 | 1.6 | 0.00 | 0.00 | 0.00 | 96 | 1020.6 |
| 20260905154423 | 24 | 45 | 3.2 | 3.2 | 0.00 | 0.00 | 0.00 | 96 | 1020.8 |
| 20260905153423 | 23 | 45 | 1.6 | 3.2 | 0.00 | 0.00 | 0.00 | 98 | 1020.7 |
| 20260905151622 | 23 | 45 | 3.2 | 3.2 | 0.00 | 0.00 | 0.00 | 99 | 1020.9 |
| 20260905151523 | 23 | 45 | 1.6 | 3.2 | 0.00 | 0.00 | 0.00 | 99 | 1020.8 |
| 20260905150522 | 22 | 45 | 1.6 | 1.6 | 0.00 | 0.00 | 0.00 | 100 | 1021.0 |
| 20260905145523 | 22 | 45 | 0.0 | 1.6 | 0.00 | 0.00 | 0.00 | 99 | 1020.9 |
| 20260905144522 | 22 | 45 | 1.6 | 3.2 | 0.00 | 0.00 | 0.00 | 100 | 1020.8 |
| 20260905143523 | 21 | 45 | 0.0 | 0.0 | 0.00 | 0.00 | 0.00 | 100 | 1021.0 |
| 20260905142422 | 21 | 45 | 0.0 | 0.0 | 0.00 | 0.00 | 0.00 | 100 | 1021.2 |
| 20260905142323 | 21 | 45 | 0.0 | 0.0 | 0.00 | 0.00 | 0.00 | 100 | 1021.2 |
| 20260905141322 | 20 | 45 | 0.0 | 0.0 | 0.00 | 0.00 | 0.00 | 100 | 1021.3 |
| 20260905135323 | 20 | 45 | 0.0 | 0.0 | 0.00 | 0.00 | 0.00 | 100 | 1021.3 |
| 20260905134323 | 19 | 45 | 0.0 | 0.0 | 0.00 | 0.00 | 0.00 | 100 | 1021.4 |
| 20260905133323 | 19 | 45 | 0.0 | 0.0 | 0.00 | 0.00 | 0.00 | 99 | 1021.6 |
| 20260905132323 | 19 | 45 | 0.0 | 0.0 | 0.00 | 0.00 | 0.00 | 99 | 1021.6 |
| 20260905132222 | 19 | 45 | 0.0 | 0.0 | 0.00 | 0.00 | 0.00 | 100 | 1021.6 |
| 20260905131220 | 18 | 45 | 0.0 | 0.0 | 0.00 | 0.00 | 0.00 | 100 | 1021.8 |
| 20260905130222 | 18 | 45 | 0.0 | 0.0 | 0.00 | 0.00 | 0.00 | 99 | 1021.7 |
| 20260905125223 | 18 | 45 | 0.0 | 0.0 | 0.00 | 0.00 | 0.00 | 99 | 1021.7 |
| 20260905124221 | 18 | 45 | 0.0 | 0.0 | 0.00 | 0.00 | 0.00 | 99 | 1021.6 |
| 20260905124123 | 18 | 45 | 0.0 | 0.0 | 0.00 | 0.00 | 0.00 | 99 | 1021.7 |
| 20260905123122 | 18 | 45 | 0.0 | 0.0 | 0.00 | 0.00 | 0.00 | 99 | 1021.6 |
| 20260905122023 | 18 | 45 | 0.0 | 0.0 | 0.00 | 0.00 | 0.00 | 98 | 1021.4 |
| 20260905121023 | 18 | 45 | 0.0 | 0.0 | 0.00 | 0.00 | 0.00 | 99 | 1021.5 |
| 20260905120122 | 18 | 45 | 0.0 | 0.0 | 0.00 | 0.00 | 0.00 | 98 | 1021.2 |
| 20260905115124 | 18 | 45 | 0.0 | 0.0 | 0.00 | 0.00 | 0.00 | 98 | 1021.2 |
| 20260905113123 | 18 | 45 | 0.0 | 0.0 | 0.00 | 0.00 | 0.00 | 99 | 1021.1 |
| 20260905112222 | 18 | 45 | 0.0 | 0.0 | 0.00 | 0.00 | 0.00 | 98 | 1021.0 |
| 20260905111223 | 18 | 45 | 0.0 | 0.0 | 0.00 | 0.00 | 0.00 | 98 | 1020.7 |
| 20260905110223 | 18 | 45 | 0.0 | 0.0 | 0.00 | 0.00 | 0.00 | 99 | 1020.7 |
| 20260905105123 | 18 | 45 | 0.0 | 0.0 | 0.00 | 0.00 | 0.00 | 98 | 1020.6 |
| 20260905104123 | 18 | 45 | 0.0 | 0.0 | 0.00 | 0.00 | 0.00 | 98 | 1020.3 |
| 20260905103221 | 18 | 45 | 0.0 | 0.0 | 0.00 | 0.00 | 0.00 | 98 | 1020.4 |
| 20260905102224 | 18 | 45 | 0.0 | 0.0 | 0.00 | 0.00 | 0.00 | 98 | 1020.2 |
| 20260905101222 | 18 | 45 | 0.0 | 0.0 | 0.00 | 0.00 | 0.00 | 99 | 1020.4 |
| 20260905100225 | 18 | 45 | 0.0 | 0.0 | 0.00 | 0.00 | 0.00 | 98 | 1020.3 |
| 20260905095223 | 19 | 45 | 0.0 | 0.0 | 0.00 | 0.00 | 0.00 | 99 | 1020.3 |
| 20260905094224 | 19 | 45 | 0.0 | 0.0 | 0.00 | 0.00 | 0.00 | 98 | 1020.4 |
| 20260905093320 | 19 | 45 | 0.0 | 0.0 | 0.00 | 0.00 | 0.00 | 98 | 1020.2 |
| 20260905092324 | 19 | 45 | 0.0 | 0.0 | 0.00 | 0.00 | 0.00 | 98 | 1020.2 |
| 20260905091323 | 19 | 45 | 0.0 | 0.0 | 0.00 | 0.00 | 0.00 | 97 | 1020.1 |
| 20260905085322 | 19 | 45 | 0.0 | 0.0 | 0.00 | 0.00 | 0.00 | 98 | 1020.3 |
| 20260905084322 | 19 | 45 | 0.0 | 0.0 | 0.00 | 0.00 | 0.00 | 97 | 1020.4 |
| 20260905083322 | 20 | 45 | 0.0 | 0.0 | 0.00 | 0.00 | 0.00 | 97 | 1020.7 |
| 20260905082322 | 20 | 45 | 0.0 | 0.0 | 0.00 | 0.00 | 0.00 | 97 | 1020.6 |
| 20260905081421 | 20 | 45 | 0.0 | 0.0 | 0.00 | 0.00 | 0.00 | 97 | 1020.8 |
| 20260905080422 | 20 | 45 | 0.0 | 0.0 | 0.00 | 0.00 | 0.00 | 97 | 1020.9 |
| 20260905075421 | 20 | 45 | 0.0 | 0.0 | 0.00 | 0.00 | 0.00 | 96 | 1021.0 |
| 20260905074421 | 20 | 45 | 0.0 | 0.0 | 0.00 | 0.00 | 0.00 | 96 | 1021.0 |
| 20260905073424 | 20 | 45 | 0.0 | 0.0 | 0.00 | 0.00 | 0.00 | 96 | 1021.0 |
| 20260905072522 | 20 | 45 | 0.0 | 0.0 | 0.00 | 0.00 | 0.00 | 96 | 1021.1 |
| 20260905071523 | 20 | 45 | 0.0 | 0.0 | 0.00 | 0.00 | 0.00 | 96 | 1021.2 |
| 20260905070523 | 20 | 45 | 0.0 | 0.0 | 0.00 | 0.00 | 0.00 | 95 | 1021.3 |
| 20260905070425 | 20 | 45 | 0.0 | 0.0 | 0.00 | 0.00 | 0.00 | 95 | 1021.2 |
| 20260905065521 | 20 | 45 | 0.0 | 0.0 | 0.00 | 0.00 | 0.00 | 96 | 1021.4 |
| 20260905064524 | 20 | 45 | 0.0 | 0.0 | 0.00 | 0.00 | 0.00 | 96 | 1021.5 |
| 20260905064422 | 20 | 45 | 0.0 | 0.0 | 0.00 | 0.00 | 0.00 | 96 | 1021.4 |
| 20260905063520 | 20 | 45 | 0.0 | 0.0 | 0.00 | 0.00 | 0.00 | 95 | 1021.6 |
| 20260905061621 | 20 | 45 | 0.0 | 0.0 | 0.00 | 0.00 | 0.00 | 95 | 1021.6 |